South Amboy, New Jersey
Current Conditions -  °F | °C
As of 5:35 PM on Thursday 23 Oct 2014 (Local Time) from KLDJ Reporting Station
Overcast Overcast  
Wind Chill: 57°   Ceiling: 3800
Heat Index: 57°   Visibility: 10mi
Dew Point: 50°   Wind: 16mph
Humidity: 78%   Direction: 330°NNW
Pressure: 29.75"   Gusts: 20mph
Location:  40.48°N, 74.28°W
Report Text: KLDJ 232135Z AUTO 33014G17KT 10SM OVC038 14/10 A2975 RMK AO2 T01370100
Loading
Personal Weather Stations






























Interactive Weather Map New forecast layout! Learn more

10-Day Weather Forecast

Advertisements
Track Severe Weather on mobile